Time;durP1;ratioP1;P1;durP2;ratioP2;P2;SDS_P1;SDS_P2;PMS_P1;PMS_P2;Temp;Humidity;BMP_temperature;BMP_pressure;BME280_temperature;BME280_humidity;BME280_pressure;Samples;Min_cycle;Max_cycle;Signal;HPM_P1;HPM_P2
2021/04/05 00:00:47;;;;;;;14.98;6.30;;;;;;;21.39;15.25;97846.03;5080838;28;20044;-88
2021/04/05 00:03:14;;;;;;;13.55;7.05;;;;;;;21.67;15.01;97842.81;5082945;28;20484;-88
2021/04/05 00:05:41;;;;;;;15.18;7.38;;;;;;;21.47;15.29;97842.72;5080934;28;20100;-87
2021/04/05 00:08:07;;;;;;;13.27;6.20;;;;;;;21.41;15.25;97833.25;5079390;28;20507;-88
2021/04/05 00:10:39;;;;;;;14.63;6.20;;;;;;;21.28;15.38;97824.66;5081550;28;20025;-88
2021/04/05 00:13:11;;;;;;;13.95;6.15;;;;;;;21.29;15.25;97822.66;5083644;28;20044;-88
2021/04/05 00:15:37;;;;;;;12.85;5.38;;;;;;;21.30;15.05;97822.25;5080549;28;20082;-85
2021/04/05 00:18:04;;;;;;;14.77;5.90;;;;;;;21.16;15.19;97813.28;5082145;28;20508;-86
2021/04/05 00:20:34;;;;;;;13.52;5.95;;;;;;;21.24;15.09;97815.53;5084159;28;20476;-88
2021/04/05 00:23:00;;;;;;;13.82;5.97;;;;;;;21.33;15.27;97815.78;5063395;28;20036;-88
2021/04/05 00:25:27;;;;;;;12.27;5.25;;;;;;;21.15;15.38;97806.09;5089651;28;20031;-88
2021/04/05 00:27:56;;;;;;;13.52;4.82;;;;;;;21.24;15.08;97801.56;5075845;28;20462;-87
2021/04/05 00:30:32;;;;;;;12.65;5.20;;;;;;;21.04;15.00;97802.66;5081768;28;20552;-88
2021/04/05 00:32:58;;;;;;;10.13;5.32;;;;;;;21.05;15.15;97798.69;5078806;28;20399;-89
2021/04/05 00:35:27;;;;;;;9.60;4.82;;;;;;;21.12;14.87;97788.19;5081341;28;20036;-89
2021/04/05 00:37:54;;;;;;;10.70;4.53;;;;;;;21.17;15.17;97792.50;5084092;28;20028;-88
2021/04/05 00:40:29;;;;;;;11.00;4.35;;;;;;;21.34;15.13;97786.66;5079441;28;20033;-88
2021/04/05 00:42:55;;;;;;;8.27;3.40;;;;;;;21.44;15.08;97789.72;5073328;28;20048;-89
2021/04/05 00:45:22;;;;;;;9.63;4.28;;;;;;;21.37;14.84;97785.03;5076806;28;20092;-88
2021/04/05 00:47:51;;;;;;;12.95;4.97;;;;;;;21.05;15.20;97779.16;5085827;28;20115;-89
2021/04/05 00:50:26;;;;;;;8.65;4.15;;;;;;;20.61;15.55;97774.53;5083736;28;20029;-88
2021/04/05 00:52:53;;;;;;;7.57;3.72;;;;;;;20.83;15.23;97763.88;5067322;28;20033;-88
2021/04/05 00:55:20;;;;;;;8.48;4.18;;;;;;;21.03;15.46;97761.97;5068951;28;20036;-88
2021/04/05 00:57:47;;;;;;;10.77;4.28;;;;;;;21.34;15.15;97760.75;5079322;28;20510;-88
2021/04/05 01:00:17;;;;;;;6.13;2.72;;;;;;;21.27;14.94;97761.66;5081191;28;20032;-88
2021/04/05 01:02:44;;;;;;;8.03;3.13;;;;;;;21.28;15.05;97748.47;5073320;28;20032;-88
2021/04/05 01:05:13;;;;;;;6.80;2.72;;;;;;;21.28;14.93;97749.25;5078336;28;20275;-88
2021/04/05 01:07:41;;;;;;;9.77;3.78;;;;;;;21.45;14.88;97739.00;5072722;28;20090;-88
2021/04/05 01:10:09;;;;;;;8.00;3.78;;;;;;;21.62;14.51;97739.91;5076324;28;20025;-89
2021/04/05 01:12:35;;;;;;;6.15;2.78;;;;;;;21.55;14.69;97732.47;5082750;28;20411;-88
2021/04/05 01:15:04;;;;;;;4.93;2.55;;;;;;;21.44;14.70;97729.06;5081675;28;20084;-88
2021/04/05 01:17:30;;;;;;;6.55;2.78;;;;;;;21.59;14.99;97732.38;5081979;28;20028;-88
2021/04/05 01:19:56;;;;;;;5.72;2.50;;;;;;;21.58;14.86;97720.44;5079755;28;20040;-88
2021/04/05 01:22:23;;;;;;;7.57;2.75;;;;;;;21.60;14.78;97717.22;5078084;28;20028;-88
2021/04/05 01:24:50;;;;;;;5.45;2.75;;;;;;;21.44;14.91;97709.50;5073414;28;20028;-88
2021/04/05 01:27:16;;;;;;;6.28;3.05;;;;;;;21.30;14.96;97709.75;5079869;28;20031;-88
2021/04/05 01:29:42;;;;;;;9.65;3.42;;;;;;;21.46;15.02;97709.88;5084653;28;20036;-88
2021/04/05 01:32:09;;;;;;;8.98;3.13;;;;;;;21.58;14.76;97705.69;5081513;28;20543;-88
2021/04/05 01:34:39;;;;;;;4.80;2.95;;;;;;;21.19;15.06;97701.53;5081621;28;20032;-88
2021/04/05 01:37:06;;;;;;;5.37;2.57;;;;;;;21.29;15.06;97697.00;5079021;28;20028;-88
2021/04/05 01:39:38;;;;;;;5.68;2.28;;;;;;;21.44;14.86;97694.75;5083736;28;20040;-88
2021/04/05 01:42:05;;;;;;;5.80;3.20;;;;;;;21.51;14.80;97694.63;5085259;28;20036;-88
2021/04/05 01:44:35;;;;;;;4.57;2.05;;;;;;;21.53;14.70;97689.41;5083975;28;20025;-88
2021/04/05 01:47:02;;;;;;;4.88;2.88;;;;;;;21.66;14.71;97682.75;5085982;28;20116;-87
2021/04/05 01:49:28;;;;;;;6.85;2.78;;;;;;;21.56;14.64;97685.75;5086186;28;20032;-88
2021/04/05 01:51:55;;;;;;;5.38;2.78;;;;;;;21.62;14.40;97672.88;5088484;28;20488;-88
2021/04/05 01:54:23;;;;;;;5.53;3.20;;;;;;;21.66;14.45;97665.19;5081683;28;20404;-88
2021/04/05 01:56:49;;;;;;;7.07;2.95;;;;;;;21.64;14.52;97651.66;5088959;28;20036;-88
2021/04/05 01:59:17;;;;;;;6.38;2.85;;;;;;;21.47;14.78;97654.81;5086363;28;20083;-88
2021/04/05 02:01:43;;;;;;;6.95;2.80;;;;;;;21.45;14.63;97646.84;5086633;28;20462;-88
2021/04/05 02:04:10;;;;;;;4.80;2.45;;;;;;;21.37;14.60;97653.78;5080718;28;20125;-88
2021/04/05 02:06:36;;;;;;;4.30;2.38;;;;;;;21.25;14.95;97646.00;5088996;28;20032;-88
2021/04/05 02:09:07;;;;;;;4.47;2.35;;;;;;;21.21;14.99;97634.88;5079961;28;20048;-88
2021/04/05 02:11:38;;;;;;;;;;;;;;;21.16;15.19;97629.03;5079087;28;20063;-87
2021/04/05 02:14:06;;;;;;;;;;;;;;;21.22;15.07;97641.28;5060992;28;20018;-86
2021/04/05 02:16:32;;;;;;;4.85;2.13;;;;;;;20.99;15.13;97628.06;5079149;28;19916;-85
2021/04/05 02:18:59;;;;;;;5.78;2.42;;;;;;;21.04;14.92;97616.47;5069778;28;20029;-88
2021/04/05 02:21:27;;;;;;;5.32;2.25;;;;;;;21.40;14.68;97613.81;5083654;28;20096;-88
2021/04/05 02:23:55;;;;;;;3.88;2.80;;;;;;;21.66;14.54;97609.31;5082801;28;20035;-87
2021/04/05 02:26:28;;;;;;;5.55;1.88;;;;;;;21.63;14.50;97604.63;5067619;28;20123;-87
2021/04/05 02:28:59;;;;;;;3.70;2.38;;;;;;;21.29;14.84;97602.84;5076251;28;20491;-88
2021/04/05 02:31:28;;;;;;;3.55;1.90;;;;;;;21.00;15.01;97601.75;5082925;28;20040;-88
2021/04/05 02:33:57;;;;;;;4.70;1.92;;;;;;;20.86;15.30;97592.81;5080791;28;20036;-87
2021/04/05 02:36:26;;;;;;;4.72;2.17;;;;;;;21.02;15.00;97596.53;5079112;28;20114;-87
2021/04/05 02:38:54;;;;;;;5.50;2.35;;;;;;;21.09;15.12;97584.47;5079118;28;20024;-88
2021/04/05 02:41:22;;;;;;;3.65;2.30;;;;;;;21.27;14.89;97585.75;5088809;28;20138;-88
2021/04/05 02:43:50;;;;;;;4.90;2.33;;;;;;;21.38;14.85;97581.97;5080627;28;20046;-88
2021/04/05 02:46:20;;;;;;;5.00;2.05;;;;;;;21.43;14.65;97579.44;5076089;28;20488;-88
2021/04/05 02:48:49;;;;;;;4.93;2.22;;;;;;;21.50;14.47;97582.09;5074637;28;20039;-88
2021/04/05 02:51:16;;;;;;;2.97;1.42;;;;;;;21.51;14.67;97574.53;5081498;28;20054;-88
2021/04/05 02:54:02;;;;;;;4.30;2.17;;;;;;;21.23;14.80;97567.47;5066597;28;20101;-88
2021/04/05 02:56:29;;;;;;;3.67;1.85;;;;;;;21.55;14.49;97567.66;5083883;28;20028;-88
2021/04/05 02:58:57;;;;;;;4.10;1.95;;;;;;;21.31;14.82;97560.53;5078259;28;20039;-88
2021/04/05 03:01:26;;;;;;;3.00;1.60;;;;;;;21.30;14.83;97556.97;5086803;28;20683;-88
2021/04/05 03:03:56;;;;;;;3.17;1.85;;;;;;;21.40;14.61;97554.41;5075990;28;20033;-88
2021/04/05 03:06:23;;;;;;;3.72;1.70;;;;;;;21.51;14.64;97546.59;5075543;28;20040;-88
2021/04/05 03:08:49;;;;;;;4.28;2.00;;;;;;;21.34;14.61;97535.34;5081579;28;20039;-88
2021/04/05 03:11:20;;;;;;;4.03;1.63;;;;;;;21.34;14.74;97534.53;5075913;28;20044;-88
2021/04/05 03:13:47;;;;;;;5.75;1.75;;;;;;;21.26;14.76;97530.34;5071004;28;20040;-88
2021/04/05 03:16:23;;;;;;;3.78;1.70;;;;;;;21.41;14.37;97533.63;5061348;28;20024;-88
2021/04/05 03:18:51;;;;;;;3.90;2.28;;;;;;;21.29;14.52;97524.66;5055327;28;20025;-88
2021/04/05 03:21:20;;;;;;;2.65;1.63;;;;;;;21.11;14.89;97518.66;5054293;28;20124;-88
2021/04/05 03:23:46;;;;;;;3.80;1.98;;;;;;;21.33;14.63;97508.63;5065627;28;20033;-87
2021/04/05 03:26:12;;;;;;;4.90;1.95;;;;;;;21.45;14.58;97507.19;5062677;28;20067;-88
2021/04/05 03:28:39;;;;;;;4.30;2.10;;;;;;;21.31;14.63;97513.06;5061259;28;20082;-88
2021/04/05 03:31:08;;;;;;;4.38;1.40;;;;;;;21.33;14.49;97503.03;5070275;28;20507;-88
2021/04/05 03:33:53;;;;;;;4.63;1.80;;;;;;;21.16;14.75;97489.44;5066436;28;20064;-88
2021/04/05 03:36:36;;;;;;;2.75;1.70;;;;;;;21.08;14.78;97496.38;5064988;28;20033;-88
2021/04/05 03:39:03;;;;;;;3.78;1.50;;;;;;;21.12;14.86;97494.31;5063425;28;20484;-88
2021/04/05 03:42:02;;;;;;;4.00;1.70;;;;;;;21.02;14.77;97490.47;5063683;28;20393;-88
2021/04/05 03:44:51;;;;;;;2.90;1.88;;;;;;;21.09;14.63;97473.63;5064657;28;20044;-88
2021/04/05 03:47:23;;;;;;;4.50;1.80;;;;;;;21.33;14.67;97472.31;5057799;28;20499;-88
2021/04/05 03:50:14;;;;;;;1.95;1.48;;;;;;;20.98;14.83;97475.00;5063064;28;20035;-87
2021/04/05 03:52:49;;;;;;;3.45;1.60;;;;;;;21.06;14.84;97468.88;5055349;28;20028;-88
2021/04/05 03:55:18;;;;;;;5.68;2.58;;;;;;;20.93;14.93;97459.56;5066289;28;20402;-88
2021/04/05 03:57:50;;;;;;;6.05;2.95;;;;;;;19.06;16.64;97464.38;5054555;28;20029;-88
2021/04/05 04:00:20;;;;;;;4.32;1.70;;;;;;;20.65;15.14;97452.47;5062379;28;20043;-88
2021/04/05 04:02:52;;;;;;;5.32;2.47;;;;;;;20.90;14.99;97442.88;5057080;28;20086;-88
2021/04/05 04:05:28;;;;;;;3.05;1.65;;;;;;;21.09;14.79;97439.34;5057326;28;20035;-88
2021/04/05 04:08:34;;;;;;;3.47;1.77;;;;;;;21.09;14.84;97442.91;5061724;28;20064;-88
2021/04/05 04:10:54;;;;;;;2.88;1.75;;;;;;;21.23;14.70;97428.69;5052653;28;20144;-87
2021/04/05 04:13:22;;;;;;;3.17;1.75;;;;;;;21.33;14.69;97424.84;5058996;28;20048;-87
2021/04/05 04:15:50;;;;;;;4.50;2.17;;;;;;;21.28;14.64;97427.38;5054195;28;20083;-88
2021/04/05 04:18:18;;;;;;;4.10;2.30;;;;;;;21.37;14.66;97424.78;5057540;28;20112;-87
2021/04/05 04:20:46;;;;;;;3.38;1.73;;;;;;;21.49;14.48;97420.56;5048650;28;20049;-88
2021/04/05 04:23:13;;;;;;;3.13;1.48;;;;;;;21.64;14.36;97413.41;5062611;28;20033;-88
2021/04/05 04:25:40;;;;;;;3.50;1.90;;;;;;;21.33;14.62;97398.97;5063475;28;20031;-88
2021/04/05 04:28:06;;;;;;;2.67;1.35;;;;;;;21.33;14.73;97396.94;5058292;28;20111;-88
2021/04/05 04:30:33;;;;;;;2.63;1.58;;;;;;;21.44;14.74;97391.13;5056837;28;20423;-88
2021/04/05 04:33:05;;;;;;;4.25;1.88;;;;;;;21.42;14.76;97393.56;5056430;28;20556;-88
2021/04/05 04:35:33;;;;;;;2.30;1.55;;;;;;;21.61;14.75;97375.19;5036027;28;20497;-88
2021/04/05 04:38:00;;;;;;;2.15;1.40;;;;;;;22.06;14.32;97364.13;5057114;28;20112;-88
2021/04/05 04:40:28;;;;;;;3.90;1.35;;;;;;;22.47;14.22;97365.06;5060913;28;20075;-88
2021/04/05 04:42:59;;;;;;;2.88;1.48;;;;;;;22.65;14.11;97365.38;5040755;28;20044;-88
2021/04/05 04:45:27;;;;;;;2.20;1.17;;;;;;;23.07;13.77;97360.59;5062716;28;20086;-88
2021/04/05 04:47:57;;;;;;;3.20;1.60;;;;;;;23.17;13.63;97345.50;5064312;28;20024;-88
2021/04/05 04:50:25;;;;;;;3.07;1.60;;;;;;;23.20;14.05;97343.78;5066175;28;20037;-88
2021/04/05 04:52:53;;;;;;;4.18;1.50;;;;;;;23.53;13.71;97338.81;5056570;28;20116;-88
2021/04/05 04:55:20;;;;;;;5.05;1.25;;;;;;;23.93;13.48;97335.09;5040127;28;20022;-88
2021/04/05 04:57:46;;;;;;;4.50;1.52;;;;;;;24.12;13.53;97330.50;5068571;28;20043;-88
2021/04/05 05:00:13;;;;;;;3.13;1.83;;;;;;;23.93;13.38;97329.50;5054686;28;20028;-88
2021/04/05 05:02:41;;;;;;;3.20;1.38;;;;;;;24.09;13.70;97322.19;5056770;28;20103;-88
2021/04/05 05:05:09;;;;;;;1.90;1.23;;;;;;;23.90;13.96;97321.97;5044472;28;20029;-88
2021/04/05 05:07:37;;;;;;;3.88;1.58;;;;;;;23.46;14.72;97320.22;5069165;28;20040;-88
2021/04/05 05:10:11;;;;;;;1.88;1.25;;;;;;;23.44;14.89;97311.47;5061710;28;20044;-89
2021/04/05 05:12:38;;;;;;;2.72;0.95;;;;;;;23.54;14.56;97309.56;5065382;28;20029;-89
2021/04/05 05:15:10;;;;;;;4.00;1.38;;;;;;;23.02;15.05;97302.34;5084294;28;20126;-89
2021/04/05 05:17:46;;;;;;;2.22;1.50;;;;;;;22.83;15.38;97291.31;5079747;28;20039;-89
2021/04/05 05:20:18;;;;;;;4.10;1.67;;;;;;;23.06;15.41;97293.81;5083351;28;20050;-89
2021/04/05 05:22:59;;;;;;;2.13;1.10;;;;;;;23.12;15.58;97281.63;5088318;28;20392;-89
2021/04/05 05:25:26;;;;;;;2.45;1.13;;;;;;;23.27;15.15;97279.16;5091604;28;20025;-89
2021/04/05 05:28:02;;;;;;;4.18;1.42;;;;;;;22.95;16.12;97268.16;5084445;28;20380;-89
2021/04/05 05:30:29;;;;;;;1.77;1.20;;;;;;;23.96;15.14;97271.72;5088142;28;20043;-89
2021/04/05 05:32:59;;;;;;;1.55;1.00;;;;;;;24.42;14.69;97256.88;5083536;28;20401;-89
2021/04/05 05:35:25;;;;;;;2.15;1.38;;;;;;;24.73;14.38;97251.34;5082171;28;20056;-90
2021/04/05 05:37:52;;;;;;;2.17;1.30;;;;;;;25.08;13.82;97250.00;5085302;28;20448;-91
2021/04/05 05:40:23;;;;;;;1.40;0.90;;;;;;;25.18;13.93;97250.84;5083883;28;20105;-92
2021/04/05 05:43:24;;;;;;;2.88;1.20;;;;;;;25.40;13.55;97235.47;5079922;28;20028;-93
2021/04/05 05:45:55;;;;;;;3.35;1.70;;;;;;;25.18;13.76;97236.78;5086235;28;20059;-93
2021/04/05 05:48:24;;;;;;;2.05;1.23;;;;;;;25.41;13.88;97239.06;5090045;28;20100;-93
2021/04/05 05:51:12;;;;;;;2.05;0.90;;;;;;;25.54;13.82;97225.69;5081764;28;20039;-94
2021/04/05 05:54:06;;;;;;;2.17;1.30;;;;;;;25.57;13.74;97236.00;5084521;28;20052;-93
2021/04/05 05:56:51;;;;;;;1.48;0.93;;;;;;;25.82;13.67;97218.88;5076384;28;20044;-93
2021/04/05 05:59:29;;;;;;;3.60;1.10;;;;;;;25.96;13.75;97217.47;5083491;28;20436;-93
2021/04/05 06:01:57;;;;;;;2.20;1.30;;;;;;;26.01;13.98;97209.22;5084450;28;20036;-94
2021/04/05 06:04:51;;;;;;;1.50;1.27;;;;;;;25.96;13.39;97197.78;5087058;28;20028;-90
2021/04/05 06:08:01;;;;;;;1.35;0.73;;;;;;;26.48;13.27;97205.94;5079324;28;20048;-95
2021/04/05 06:10:44;;;;;;;2.65;1.15;;;;;;;26.86;13.22;97208.25;5083094;28;20140;-95
2021/04/05 06:13:40;;;;;;;2.63;1.27;;;;;;;27.16;12.68;97212.03;5080740;28;20056;-94
2021/04/05 06:16:31;;;;;;;2.08;1.00;;;;;;;26.39;12.81;97211.59;5056444;28;20037;-94
2021/04/05 06:19:00;;;;;;;2.80;1.38;;;;;;;26.21;13.29;97199.56;5059088;28;20032;-94
2021/04/05 06:21:34;;;;;;;1.90;1.00;;;;;;;26.47;13.35;97192.31;5072113;28;20041;-94
2021/04/05 06:24:09;;;;;;;1.33;0.90;;;;;;;26.66;13.83;97191.81;5059998;28;20127;-93
2021/04/05 06:26:52;;;;;;;3.30;1.40;;;;;;;26.83;12.78;97183.03;5057999;28;20846;-94
2021/04/05 06:29:43;;;;;;;1.25;0.90;;;;;;;26.58;13.08;97172.94;5063723;28;20082;-94
2021/04/05 06:32:18;;;;;;;2.80;1.77;;;;;;;26.58;12.92;97170.13;5059857;28;20467;-95
2021/04/05 06:35:03;;;;;;;3.80;1.50;;;;;;;26.71;13.68;97165.84;5067221;28;20028;-93
2021/04/05 06:37:52;;;;;;;1.73;1.02;;;;;;;27.07;13.40;97155.72;5064131;28;20049;-93
2021/04/05 06:40:23;;;;;;;3.28;1.38;;;;;;;27.27;13.49;97147.47;5061204;28;20128;-92
2021/04/05 06:43:04;;;;;;;2.38;1.30;;;;;;;26.53;13.49;97145.41;5060181;28;20419;-92
2021/04/05 06:45:42;;;;;;;1.42;1.08;;;;;;;26.61;13.10;97153.03;5065102;28;20563;-92
2021/04/05 06:48:27;;;;;;;5.43;1.17;;;;;;;26.42;13.08;97153.56;5052476;28;20032;-91
2021/04/05 06:51:24;;;;;;;2.13;1.17;;;;;;;25.41;13.19;97144.25;5063278;28;20396;-95
2021/04/05 06:53:54;;;;;;;1.70;1.05;;;;;;;25.82;13.91;97144.97;5050352;28;20469;-93
2021/04/05 06:56:29;;;;;;;2.60;1.00;;;;;;;26.25;13.30;97138.25;5057791;28;20071;-93
2021/04/05 06:59:16;;;;;;;1.33;1.13;;;;;;;26.69;13.18;97139.41;5055274;28;20388;-93
2021/04/05 07:02:02;;;;;;;1.60;0.80;;;;;;;26.61;12.63;97143.81;5057565;28;20036;-91
2021/04/05 07:05:04;;;;;;;1.55;1.05;;;;;;;27.10;12.63;97135.03;5058983;28;20091;-92
2021/04/05 07:08:21;;;;;;;2.00;0.93;;;;;;;27.11;12.89;97131.75;5069068;28;20373;-90
2021/04/05 07:11:04;;;;;;;1.60;1.00;;;;;;;27.26;12.69;97134.63;4997508;28;20052;-93
2021/04/05 07:13:57;;;;;;;1.70;0.88;;;;;;;27.61;12.82;97129.28;5068133;28;20044;-95
2021/04/05 07:16:47;;;;;;;1.15;0.85;;;;;;;27.46;12.61;97115.13;5074787;28;20053;-92
2021/04/05 07:19:43;;;;;;;2.47;0.90;;;;;;;26.54;12.68;97125.22;5078490;28;20032;-92
2021/04/05 07:22:36;;;;;;;2.65;1.00;;;;;;;26.40;12.85;97114.63;5076035;28;20032;-91
2021/04/05 07:25:06;;;;;;;3.00;1.20;;;;;;;26.43;13.55;97119.31;5081928;28;20115;-92
2021/04/05 07:27:53;;;;;;;1.67;1.10;;;;;;;26.31;12.84;97109.00;5081915;28;20033;-93
2021/04/05 07:30:40;;;;;;;3.45;1.27;;;;;;;25.73;12.94;97114.81;5066267;28;20044;-93
2021/04/05 07:33:32;;;;;;;4.57;2.20;;;;;;;25.75;13.04;97108.72;5078355;28;20074;-95
2021/04/05 07:36:18;;;;;;;3.55;2.47;;;;;;;25.23;14.45;97104.09;5078160;28;20036;-95
2021/04/05 07:39:01;;;;;;;4.25;1.88;;;;;;;26.25;13.27;97102.47;5084767;28;20032;-94
2021/04/05 07:41:38;;;;;;;4.50;2.88;;;;;;;25.88;14.34;97092.50;5091046;28;20507;-94
2021/04/05 07:44:07;;;;;;;5.53;3.67;;;;;;;26.18;13.69;97090.75;5084439;28;20028;-94
2021/04/05 07:46:47;;;;;;;1.67;1.17;;;;;;;26.66;13.09;97096.09;5065028;28;20070;-94
2021/04/05 07:49:22;;;;;;;1.93;1.60;;;;;;;26.12;13.72;97089.81;5063689;28;20521;-94
2021/04/05 07:52:01;;;;;;;2.63;1.50;;;;;;;26.24;13.27;97072.75;5078371;28;20032;-94
2021/04/05 07:54:32;;;;;;;2.95;1.33;;;;;;;26.05;14.13;97085.25;5075972;28;20028;-91
2021/04/05 07:57:15;;;;;;;;;;;;;;;25.44;13.90;97074.38;5088351;28;20036;-92
2021/04/05 08:00:09;;;;;;;2.63;1.60;;;;;;;26.42;12.96;97072.69;5084434;28;19961;-91
2021/04/05 08:03:03;;;;;;;4.57;1.55;;;;;;;27.24;13.56;97067.47;5069909;28;20442;-89
2021/04/05 08:05:56;;;;;;;2.30;1.45;;;;;;;27.18;13.03;97058.13;5078022;28;20107;-91
2021/04/05 08:08:51;;;;;;;3.33;1.42;;;;;;;28.02;13.48;97060.63;5074712;28;20028;-89
2021/04/05 08:11:35;;;;;;;2.13;1.08;;;;;;;27.40;13.00;97038.09;5076417;28;20039;-91
2021/04/05 08:14:22;;;;;;;2.42;1.00;;;;;;;27.68;12.44;97039.44;5079297;28;20044;-89
2021/04/05 08:16:57;;;;;;;2.10;1.10;;;;;;;27.52;13.17;97020.16;5082369;28;20036;-91
2021/04/05 08:19:26;;;;;;;4.03;2.05;;;;;;;26.81;12.82;97025.81;5079790;28;20033;-91
2021/04/05 08:22:03;;;;;;;4.25;1.42;;;;;;;25.33;13.97;97013.75;5083650;28;20045;-91
2021/04/05 08:24:55;;;;;;;2.53;1.20;;;;;;;26.56;14.05;97009.28;5077789;28;20032;-93
2021/04/05 08:27:37;;;;;;;2.95;1.27;;;;;;;26.28;13.55;97007.88;5077796;28;20032;-90
2021/04/05 08:30:08;;;;;;;2.42;1.40;;;;;;;26.17;14.64;97002.75;5076188;28;20046;-89
2021/04/05 08:33:12;;;;;;;1.73;1.20;;;;;;;25.59;14.13;96994.56;5083391;28;20165;-84
2021/04/05 08:35:44;;;;;;;2.05;1.13;;;;;;;26.83;13.90;96991.50;5081191;28;20047;-94
2021/04/05 08:38:40;;;;;;;1.92;1.20;;;;;;;26.14;14.18;96995.25;5078524;28;20107;-94
2021/04/05 08:41:34;;;;;;;1.92;0.88;;;;;;;27.07;13.78;97003.56;5088563;28;20109;-93
2021/04/05 08:44:31;;;;;;;3.10;1.50;;;;;;;25.29;14.41;96973.03;5072480;28;20119;-96
2021/04/05 08:47:01;;;;;;;1.52;1.40;;;;;;;26.06;13.88;96979.94;5071139;28;20089;-96
2021/04/05 08:49:29;;;;;;;1.38;1.10;;;;;;;26.57;14.21;96972.25;5089067;28;20020;-95
2021/04/05 08:52:02;;;;;;;2.58;1.45;;;;;;;26.41;13.86;96955.75;5085831;28;20036;-96
2021/04/05 08:54:30;;;;;;;3.42;1.35;;;;;;;26.11;14.68;96959.63;5078675;28;20299;-96
2021/04/05 08:57:18;;;;;;;3.15;1.67;;;;;;;25.36;15.14;96955.84;5065958;28;20407;-96
2021/04/05 08:59:52;;;;;;;1.92;1.20;;;;;;;26.00;14.21;96953.69;5089701;28;20043;-95
2021/04/05 09:02:25;;;;;;;3.80;1.42;;;;;;;25.52;14.62;96929.47;5078947;28;20103;-92
2021/04/05 09:04:54;;;;;;;6.18;1.70;;;;;;;25.81;14.77;96936.09;5087396;28;20111;-90
2021/04/05 09:07:47;;;;;;;6.35;2.03;;;;;;;25.47;14.00;96930.09;5086449;28;20024;-90
2021/04/05 09:10:17;;;;;;;3.97;1.77;;;;;;;26.37;14.09;96923.41;5066560;28;20409;-91
2021/04/05 09:12:45;;;;;;;4.07;2.10;;;;;;;25.98;15.08;96916.81;5088111;28;20037;-90
2021/04/05 09:15:31;;;;;;;5.75;2.28;;;;;;;26.59;14.06;96912.63;5064917;28;20029;-96
2021/04/05 09:18:16;;;;;;;2.40;1.20;;;;;;;26.94;14.14;96913.66;5084009;28;20033;-95
2021/04/05 09:21:11;;;;;;;2.33;1.52;;;;;;;26.11;14.47;96905.41;5065446;28;20037;-96
2021/04/05 09:23:48;;;;;;;2.75;1.33;;;;;;;27.03;13.58;96901.53;5051540;28;20033;-96
2021/04/05 09:26:39;;;;;;;2.58;1.40;;;;;;;27.41;12.96;96904.34;5073042;28;20036;-96
2021/04/05 09:29:35;;;;;;;1.35;1.05;;;;;;;27.81;13.07;96890.44;5082464;28;20107;-96
2021/04/05 09:32:29;;;;;;;2.97;1.38;;;;;;;27.42;12.93;96892.56;5080915;28;20108;-96
2021/04/05 09:35:32;;;;;;;1.75;1.08;;;;;;;26.90;13.64;96884.13;5080110;28;20099;-96
2021/04/05 09:38:11;;;;;;;4.13;1.35;;;;;;;27.76;13.26;96865.75;5077005;28;20040;-95
2021/04/05 09:40:58;;;;;;;1.80;1.23;;;;;;;26.60;13.81;96867.13;5087560;28;20097;-96
2021/04/05 09:43:51;;;;;;;2.85;1.50;;;;;;;26.84;14.56;96857.88;5083981;28;20032;-96
2021/04/05 09:46:40;;;;;;;3.00;1.30;;;;;;;26.47;13.59;96860.16;5087802;28;20029;-96
2021/04/05 09:49:21;;;;;;;2.08;1.10;;;;;;;27.12;13.24;96851.50;5067834;28;20131;-96
2021/04/05 09:51:59;;;;;;;1.95;1.00;;;;;;;27.41;13.40;96845.16;5088101;28;20059;-96
2021/04/05 09:54:39;;;;;;;3.63;1.30;;;;;;;27.23;14.28;96834.81;5093997;28;20031;-96
2021/04/05 09:57:14;;;;;;;2.45;2.03;;;;;;;26.19;14.92;96841.88;5096497;28;20447;-96
2021/04/05 09:59:46;;;;;;;3.35;1.48;;;;;;;27.09;13.90;96841.22;5063422;28;20043;-96
2021/04/05 10:02:15;;;;;;;4.20;1.13;;;;;;;28.12;13.57;96835.53;5090139;28;20078;-96
2021/04/05 10:04:46;;;;;;;2.35;1.50;;;;;;;27.09;14.41;96829.94;5083049;28;20020;-96
2021/04/05 10:07:13;;;;;;;2.92;1.20;;;;;;;27.71;13.66;96817.69;5092274;28;20028;-96
2021/04/05 10:09:42;;;;;;;1.98;1.52;;;;;;;27.96;13.07;96815.00;5090845;28;20039;-96
2021/04/05 10:12:09;;;;;;;3.28;1.30;;;;;;;28.27;12.69;96819.31;5097050;28;20032;-96
2021/04/05 10:14:41;;;;;;;2.80;1.58;;;;;;;26.93;13.90;96816.34;5060574;28;20041;-94
2021/04/05 10:17:09;;;;;;;2.42;1.30;;;;;;;26.65;13.62;96815.75;5061729;28;20025;-96
2021/04/05 10:19:41;;;;;;;4.10;1.55;;;;;;;26.31;13.61;96815.53;5060319;28;20036;-95
2021/04/05 10:22:18;;;;;;;1.50;1.05;;;;;;;26.81;13.44;96808.94;5059553;28;20033;-96
2021/04/05 10:24:49;;;;;;;6.70;2.50;;;;;;;26.54;12.99;96800.66;5061830;28;20476;-94
2021/04/05 10:27:17;;;;;;;4.55;1.92;;;;;;;27.37;13.25;96783.34;5059463;28;20108;-93
2021/04/05 10:29:46;;;;;;;1.77;1.00;;;;;;;27.20;13.20;96779.44;5062507;28;20032;-94
2021/04/05 10:32:17;;;;;;;3.47;1.30;;;;;;;27.40;13.41;96778.75;5074578;28;20032;-94
2021/04/05 10:34:45;;;;;;;2.72;1.20;;;;;;;27.87;13.15;96772.81;5072056;28;20079;-93
2021/04/05 10:37:25;;;;;;;1.55;0.90;;;;;;;27.63;12.24;96769.41;5069045;28;20031;-94
2021/04/05 10:39:53;;;;;;;1.58;1.15;;;;;;;27.82;13.21;96748.13;5062218;28;20040;-93
2021/04/05 10:42:30;;;;;;;4.15;1.45;;;;;;;27.63;12.56;96751.69;5065209;28;20087;-93
2021/04/05 10:45:08;;;;;;;2.00;1.38;;;;;;;27.32;12.86;96755.03;5069710;28;20079;-94
2021/04/05 10:47:48;;;;;;;1.92;1.05;;;;;;;26.65;13.74;96750.22;5065114;28;20039;-93
2021/04/05 10:50:16;;;;;;;0.70;0.68;;;;;;;27.92;13.16;96740.31;5073409;28;20044;-95
2021/04/05 10:52:47;;;;;;;1.23;0.90;;;;;;;28.00;11.99;96738.66;5067263;28;20029;-94
2021/04/05 10:55:19;;;;;;;3.80;1.13;;;;;;;28.60;12.63;96727.34;5060120;28;20095;-92
2021/04/05 10:57:52;;;;;;;2.70;1.40;;;;;;;28.49;12.25;96715.91;5068298;28;20028;-93
2021/04/05 11:00:22;;;;;;;1.33;0.88;;;;;;;28.16;13.04;96726.03;5072321;28;20068;-94
2021/04/05 11:03:08;;;;;;;1.63;1.10;;;;;;;27.95;12.33;96723.19;5073282;28;20025;-96
2021/04/05 11:05:37;;;;;;;1.73;0.90;;;;;;;27.17;13.85;96717.59;5073132;28;20468;-94
2021/04/05 11:08:06;;;;;;;1.88;0.98;;;;;;;27.12;14.49;96713.44;5071671;28;21566;-95
2021/04/05 11:10:35;;;;;;;1.27;0.82;;;;;;;27.75;12.51;96700.56;5074487;28;20032;-94
2021/04/05 11:13:17;;;;;;;2.85;0.85;;;;;;;27.49;12.59;96690.47;5072148;28;20028;-95
2021/04/05 11:15:45;;;;;;;4.32;0.90;;;;;;;26.57;13.35;96701.97;5088100;28;20031;-94
2021/04/05 11:18:17;;;;;;;2.60;0.80;;;;;;;27.82;13.23;96702.97;5095215;28;20110;-95
2021/04/05 11:20:47;;;;;;;2.13;1.00;;;;;;;27.66;12.93;96685.81;5095132;28;20059;-95
2021/04/05 11:23:22;;;;;;;1.60;0.90;;;;;;;27.42;13.68;96688.84;5093788;28;20117;-95
2021/04/05 11:25:58;;;;;;;3.20;1.20;;;;;;;27.22;12.96;96685.94;5087802;28;20031;-94
2021/04/05 11:28:27;;;;;;;1.38;0.75;;;;;;;27.41;12.34;96692.91;5093379;28;20414;-94
2021/04/05 11:30:58;;;;;;;1.10;0.50;;;;;;;28.16;12.50;96669.56;5093579;28;20028;-94
2021/04/05 11:33:25;;;;;;;;;;;;;;;28.52;11.53;96672.53;5093024;28;20039;-96
2021/04/05 11:35:54;;;;;;;2.38;0.77;;;;;;;28.18;11.81;96687.56;5091073;28;20410;-95
2021/04/05 11:38:21;;;;;;;2.47;0.93;;;;;;;28.36;13.09;96659.03;5092926;28;20428;-95
2021/04/05 11:40:50;;;;;;;2.78;0.98;;;;;;;28.43;11.61;96654.97;5087542;28;20094;-96
2021/04/05 11:43:22;;;;;;;1.20;0.60;;;;;;;28.92;11.92;96649.06;5089150;28;20038;-96
2021/04/05 11:45:53;;;;;;;1.80;1.00;;;;;;;28.92;11.83;96643.41;5080098;28;20383;-96
2021/04/05 11:48:22;;;;;;;1.52;1.20;;;;;;;29.61;11.52;96647.00;5083845;28;20029;-95
2021/04/05 11:50:49;;;;;;;1.33;0.80;;;;;;;28.06;11.89;96644.34;5084375;28;20036;-95
2021/04/05 11:53:26;;;;;;;0.98;0.77;;;;;;;28.59;11.65;96635.41;5092380;28;20258;-95
2021/04/05 11:56:04;;;;;;;3.17;0.80;;;;;;;28.53;11.34;96611.97;5089618;28;20036;-95
2021/04/05 11:58:38;;;;;;;1.88;0.60;;;;;;;28.34;11.13;96624.09;5084781;28;20036;-96
2021/04/05 12:01:10;;;;;;;1.20;0.60;;;;;;;28.29;12.01;96633.28;5087049;28;20032;-93
2021/04/05 12:03:47;;;;;;;1.00;0.70;;;;;;;28.54;11.63;96615.59;5079398;28;20507;-93
2021/04/05 12:06:33;;;;;;;1.17;0.55;;;;;;;29.31;11.01;96612.63;5067907;28;20029;-96
2021/04/05 12:09:08;;;;;;;1.30;0.50;;;;;;;29.52;11.82;96616.09;5088636;28;20039;-95